sensor_id;sensor_type;location;lat;lon;timestamp;pressure;altitude;pressure_sealevel;temperature;humidity
6532;BME280;3299;42.004;24.868;2023-01-29T00:00:36;98246.53;;;4.50;100.00
6532;BME280;3299;42.004;24.868;2023-01-29T00:03:01;98235.47;;;4.50;100.00
6532;BME280;3299;42.004;24.868;2023-01-29T00:05:27;98297.94;;;5.00;100.00
6532;BME280;3299;42.004;24.868;2023-01-29T00:07:52;98263.63;;;4.85;100.00
6532;BME280;3299;42.004;24.868;2023-01-29T00:10:18;98232.78;;;4.70;100.00
6532;BME280;3299;42.004;24.868;2023-01-29T00:12:43;98306.50;;;5.17;100.00
6532;BME280;3299;42.004;24.868;2023-01-29T00:15:08;98237.84;;;4.88;100.00
6532;BME280;3299;42.004;24.868;2023-01-29T00:17:34;98263.44;;;5.07;90.38
6532;BME280;3299;42.004;24.868;2023-01-29T00:20:00;98290.06;;;5.21;87.43
6532;BME280;3299;42.004;24.868;2023-01-29T00:22:25;98311.69;;;5.33;88.75
6532;BME280;3299;42.004;24.868;2023-01-29T00:24:51;98311.75;;;5.31;90.74
6532;BME280;3299;42.004;24.868;2023-01-29T00:27:16;98314.31;;;5.31;92.25
6532;BME280;3299;42.004;24.868;2023-01-29T00:29:42;98275.72;;;5.00;93.20
6532;BME280;3299;42.004;24.868;2023-01-29T00:32:07;98274.97;;;4.98;93.73
6532;BME280;3299;42.004;24.868;2023-01-29T00:34:33;98325.19;;;5.19;95.14
6532;BME280;3299;42.004;24.868;2023-01-29T00:36:58;98333.50;;;5.24;95.82
6532;BME280;3299;42.004;24.868;2023-01-29T00:39:30;98323.84;;;5.29;91.78
6532;BME280;3299;42.004;24.868;2023-01-29T00:42:06;98274.50;;;5.07;85.79
6532;BME280;3299;42.004;24.868;2023-01-29T00:44:50;98288.38;;;5.20;83.84
6532;BME280;3299;42.004;24.868;2023-01-29T00:47:24;98320.22;;;5.50;82.38
6532;BME280;3299;42.004;24.868;2023-01-29T00:50:04;98272.91;;;5.22;82.08
6532;BME280;3299;42.004;24.868;2023-01-29T00:52:30;98327.94;;;5.50;82.55
6532;BME280;3299;42.004;24.868;2023-01-29T00:54:57;98282.38;;;5.21;84.33
6532;BME280;3299;42.004;24.868;2023-01-29T00:57:25;98336.19;;;5.55;80.88
6532;BME280;3299;42.004;24.868;2023-01-29T00:59:51;98271.34;;;5.19;81.20
6532;BME280;3299;42.004;24.868;2023-01-29T01:02:17;98319.03;;;5.40;82.67
6532;BME280;3299;42.004;24.868;2023-01-29T01:05:02;98285.97;;;5.17;85.10
6532;BME280;3299;42.004;24.868;2023-01-29T01:07:30;98303.09;;;5.34;86.75
6532;BME280;3299;42.004;24.868;2023-01-29T01:09:56;98269.16;;;5.12;85.87
6532;BME280;3299;42.004;24.868;2023-01-29T01:12:40;98333.63;;;5.55;84.06
6532;BME280;3299;42.004;24.868;2023-01-29T01:15:06;98275.47;;;5.22;83.49
6532;BME280;3299;42.004;24.868;2023-01-29T01:17:31;98324.47;;;5.51;84.38
6532;BME280;3299;42.004;24.868;2023-01-29T01:19:57;98291.09;;;5.34;84.26
6532;BME280;3299;42.004;24.868;2023-01-29T01:22:22;98258.38;;;5.22;83.16
6532;BME280;3299;42.004;24.868;2023-01-29T01:24:47;98281.22;;;5.27;82.85
6532;BME280;3299;42.004;24.868;2023-01-29T01:27:13;98310.59;;;5.38;83.08
6532;BME280;3299;42.004;24.868;2023-01-29T01:29:38;98287.78;;;5.15;85.02
6532;BME280;3299;42.004;24.868;2023-01-29T01:32:05;98283.34;;;5.19;86.03
6532;BME280;3299;42.004;24.868;2023-01-29T01:34:30;98293.19;;;5.26;87.13
6532;BME280;3299;42.004;24.868;2023-01-29T01:36:56;98276.31;;;5.22;84.35
6532;BME280;3299;42.004;24.868;2023-01-29T01:39:22;98306.44;;;5.36;84.81
6532;BME280;3299;42.004;24.868;2023-01-29T01:41:48;98291.25;;;5.31;84.65
6532;BME280;3299;42.004;24.868;2023-01-29T01:47:20;98291.09;;;5.17;84.75
6532;BME280;3299;42.004;24.868;2023-01-29T01:49:46;98289.75;;;5.10;85.92
6532;BME280;3299;42.004;24.868;2023-01-29T01:52:13;98286.56;;;5.05;86.94
6532;BME280;3299;42.004;24.868;2023-01-29T01:54:40;98323.97;;;5.26;88.03
6532;BME280;3299;42.004;24.868;2023-01-29T01:57:10;98343.38;;;5.32;88.83
6532;BME280;3299;42.004;24.868;2023-01-29T01:59:42;98339.81;;;5.17;89.78
6532;BME280;3299;42.004;24.868;2023-01-29T02:02:10;98327.91;;;5.16;89.49
6532;BME280;3299;42.004;24.868;2023-01-29T02:04:54;98338.81;;;5.03;90.44
6532;BME280;3299;42.004;24.868;2023-01-29T02:07:47;98327.09;;;4.80;92.00
6532;BME280;3299;42.004;24.868;2023-01-29T02:10:37;98329.19;;;4.72;93.31
6532;BME280;3299;42.004;24.868;2023-01-29T02:13:05;98341.69;;;4.78;91.80
6532;BME280;3299;42.004;24.868;2023-01-29T02:15:31;98272.53;;;4.43;92.70
6532;BME280;3299;42.004;24.868;2023-01-29T02:17:57;98283.09;;;4.54;94.04
6532;BME280;3299;42.004;24.868;2023-01-29T02:20:27;98329.03;;;4.75;94.89
6532;BME280;3299;42.004;24.868;2023-01-29T02:33:50;98354.91;;;5.06;92.48
6532;BME280;3299;42.004;24.868;2023-01-29T02:49:30;98371.88;;;5.09;91.50
6532;BME280;3299;42.004;24.868;2023-01-29T02:54:44;98368.34;;;5.11;91.47
6532;BME280;3299;42.004;24.868;2023-01-29T02:57:28;98371.59;;;4.96;93.03
6532;BME280;3299;42.004;24.868;2023-01-29T03:00:03;98321.59;;;4.52;94.60
6532;BME280;3299;42.004;24.868;2023-01-29T03:02:39;98374.53;;;4.89;95.68
6532;BME280;3299;42.004;24.868;2023-01-29T03:05:14;98299.44;;;4.33;97.93
6532;BME280;3299;42.004;24.868;2023-01-29T03:07:54;98367.91;;;4.66;96.79
6532;BME280;3299;42.004;24.868;2023-01-29T03:13:16;98370.63;;;4.63;99.38
6532;BME280;3299;42.004;24.868;2023-01-29T03:15:59;98318.34;;;4.30;99.82
6532;BME280;3299;42.004;24.868;2023-01-29T03:18:30;98309.91;;;4.28;100.00
6532;BME280;3299;42.004;24.868;2023-01-29T03:21:02;98383.91;;;4.71;100.00
6532;BME280;3299;42.004;24.868;2023-01-29T03:23:50;98361.41;;;4.59;100.00
6532;BME280;3299;42.004;24.868;2023-01-29T03:26:35;98317.50;;;4.30;100.00
6532;BME280;3299;42.004;24.868;2023-01-29T03:29:19;98331.97;;;4.49;100.00
6532;BME280;3299;42.004;24.868;2023-01-29T03:32:03;98364.59;;;4.83;99.68
6532;BME280;3299;42.004;24.868;2023-01-29T03:34:40;98314.94;;;4.48;98.97
6532;BME280;3299;42.004;24.868;2023-01-29T03:37:12;98298.31;;;4.38;97.98
6532;BME280;3299;42.004;24.868;2023-01-29T03:39:40;98291.81;;;4.31;97.65
6532;BME280;3299;42.004;24.868;2023-01-29T03:44:50;98331.00;;;4.52;94.80
6532;BME280;3299;42.004;24.868;2023-01-29T03:47:21;98333.63;;;4.50;95.84
6532;BME280;3299;42.004;24.868;2023-01-29T03:50:02;98401.91;;;4.88;96.07
6532;BME280;3299;42.004;24.868;2023-01-29T03:52:43;98403.56;;;4.89;96.18
6532;BME280;3299;42.004;24.868;2023-01-29T04:00:29;98313.56;;;4.23;95.25
6532;BME280;3299;42.004;24.868;2023-01-29T04:03:25;98361.91;;;4.49;94.35
6532;BME280;3299;42.004;24.868;2023-01-29T04:06:16;98412.91;;;4.90;96.57
6532;BME280;3299;42.004;24.868;2023-01-29T04:09:26;98416.53;;;4.86;96.31
6532;BME280;3299;42.004;24.868;2023-01-29T04:11:32;98403.72;;;4.86;98.06
6532;BME280;3299;42.004;24.868;2023-01-29T04:13:59;98365.91;;;4.54;98.28
6532;BME280;3299;42.004;24.868;2023-01-29T04:16:32;98422.69;;;4.82;98.39
6532;BME280;3299;42.004;24.868;2023-01-29T04:18:59;98410.22;;;4.75;99.64
6532;BME280;3299;42.004;24.868;2023-01-29T04:21:25;98423.53;;;4.83;99.05
6532;BME280;3299;42.004;24.868;2023-01-29T04:23:51;98348.16;;;4.31;99.03
6532;BME280;3299;42.004;24.868;2023-01-29T04:26:31;98435.44;;;4.84;99.83
6532;BME280;3299;42.004;24.868;2023-01-29T04:29:29;98443.03;;;4.85;100.00
6532;BME280;3299;42.004;24.868;2023-01-29T04:32:31;98344.06;;;4.27;100.00
6532;BME280;3299;42.004;24.868;2023-01-29T04:35:00;98446.31;;;4.89;100.00
6532;BME280;3299;42.004;24.868;2023-01-29T04:37:35;98444.78;;;4.85;100.00
6532;BME280;3299;42.004;24.868;2023-01-29T04:40:19;98431.28;;;4.81;100.00
6532;BME280;3299;42.004;24.868;2023-01-29T04:48:27;98404.94;;;4.59;100.00
6532;BME280;3299;42.004;24.868;2023-01-29T04:53:24;98471.09;;;4.70;100.00
6532;BME280;3299;42.004;24.868;2023-01-29T04:55:59;98409.34;;;4.37;100.00
6532;BME280;3299;42.004;24.868;2023-01-29T04:58:38;98369.72;;;4.07;100.00
6532;BME280;3299;42.004;24.868;2023-01-29T05:01:06;98403.88;;;4.26;100.00
6532;BME280;3299;42.004;24.868;2023-01-29T05:03:35;98422.44;;;4.31;100.00
6532;BME280;3299;42.004;24.868;2023-01-29T05:06:03;98418.22;;;4.30;100.00
6532;BME280;3299;42.004;24.868;2023-01-29T05:08:30;98456.72;;;4.47;100.00
6532;BME280;3299;42.004;24.868;2023-01-29T05:10:58;98467.88;;;4.46;100.00
6532;BME280;3299;42.004;24.868;2023-01-29T05:13:25;98416.03;;;4.21;100.00
6532;BME280;3299;42.004;24.868;2023-01-29T05:16:39;98436.53;;;4.21;100.00
6532;BME280;3299;42.004;24.868;2023-01-29T05:18:45;98473.13;;;4.43;100.00
6532;BME280;3299;42.004;24.868;2023-01-29T05:21:10;98410.69;;;4.07;100.00
6532;BME280;3299;42.004;24.868;2023-01-29T05:23:36;98487.78;;;4.40;100.00
6532;BME280;3299;42.004;24.868;2023-01-29T05:26:01;98487.75;;;4.41;100.00
6532;BME280;3299;42.004;24.868;2023-01-29T05:28:27;98459.91;;;4.14;100.00
6532;BME280;3299;42.004;24.868;2023-01-29T05:30:54;98459.75;;;4.17;100.00
6532;BME280;3299;42.004;24.868;2023-01-29T05:33:28;98442.38;;;4.05;100.00
6532;BME280;3299;42.004;24.868;2023-01-29T05:35:55;98492.72;;;4.44;100.00
6532;BME280;3299;42.004;24.868;2023-01-29T05:38:22;98492.34;;;4.53;100.00
6532;BME280;3299;42.004;24.868;2023-01-29T05:40:48;98449.41;;;4.20;100.00
6532;BME280;3299;42.004;24.868;2023-01-29T05:43:15;98435.97;;;3.95;100.00
6532;BME280;3299;42.004;24.868;2023-01-29T05:45:42;98428.09;;;3.99;100.00
6532;BME280;3299;42.004;24.868;2023-01-29T05:48:07;98494.78;;;4.36;100.00
6532;BME280;3299;42.004;24.868;2023-01-29T05:50:32;98491.47;;;4.34;100.00
6532;BME280;3299;42.004;24.868;2023-01-29T05:52:59;98502.84;;;4.27;100.00
6532;BME280;3299;42.004;24.868;2023-01-29T05:55:25;98504.94;;;4.18;100.00
6532;BME280;3299;42.004;24.868;2023-01-29T05:57:51;98484.16;;;4.05;100.00
6532;BME280;3299;42.004;24.868;2023-01-29T06:00:16;98471.47;;;3.82;100.00
6532;BME280;3299;42.004;24.868;2023-01-29T06:02:42;98448.56;;;3.59;100.00
6532;BME280;3299;42.004;24.868;2023-01-29T06:05:08;98503.34;;;3.95;100.00
6532;BME280;3299;42.004;24.868;2023-01-29T06:07:33;98500.72;;;3.97;100.00
6532;BME280;3299;42.004;24.868;2023-01-29T06:09:59;98460.53;;;3.79;100.00
6532;BME280;3299;42.004;24.868;2023-01-29T06:12:25;98501.69;;;4.14;100.00
6532;BME280;3299;42.004;24.868;2023-01-29T06:14:51;98481.97;;;3.96;100.00
6532;BME280;3299;42.004;24.868;2023-01-29T06:17:16;98505.09;;;4.15;100.00
6532;BME280;3299;42.004;24.868;2023-01-29T06:19:41;98473.78;;;3.88;100.00
6532;BME280;3299;42.004;24.868;2023-01-29T06:22:09;98519.16;;;4.05;100.00
6532;BME280;3299;42.004;24.868;2023-01-29T06:24:35;98527.94;;;4.19;100.00
6532;BME280;3299;42.004;24.868;2023-01-29T06:27:00;98470.28;;;3.91;100.00
6532;BME280;3299;42.004;24.868;2023-01-29T06:29:26;98474.25;;;3.98;100.00
6532;BME280;3299;42.004;24.868;2023-01-29T06:31:51;98538.81;;;4.44;100.00
6532;BME280;3299;42.004;24.868;2023-01-29T06:34:17;98481.41;;;4.10;100.00
6532;BME280;3299;42.004;24.868;2023-01-29T06:36:42;98438.88;;;3.87;100.00
6532;BME280;3299;42.004;24.868;2023-01-29T06:39:08;98540.88;;;4.36;100.00
6532;BME280;3299;42.004;24.868;2023-01-29T06:41:33;98497.66;;;4.09;100.00
6532;BME280;3299;42.004;24.868;2023-01-29T06:43:58;98499.38;;;4.08;100.00
6532;BME280;3299;42.004;24.868;2023-01-29T06:46:24;98529.34;;;4.26;100.00
6532;BME280;3299;42.004;24.868;2023-01-29T06:48:49;98545.63;;;4.45;100.00
6532;BME280;3299;42.004;24.868;2023-01-29T06:51:15;98538.72;;;4.47;100.00
6532;BME280;3299;42.004;24.868;2023-01-29T06:53:40;98553.34;;;4.64;100.00
6532;BME280;3299;42.004;24.868;2023-01-29T06:56:06;98503.47;;;4.32;100.00
6532;BME280;3299;42.004;24.868;2023-01-29T06:58:32;98505.09;;;4.35;100.00
6532;BME280;3299;42.004;24.868;2023-01-29T07:01:09;98552.28;;;4.69;100.00
6532;BME280;3299;42.004;24.868;2023-01-29T07:03:34;98508.81;;;4.48;100.00
6532;BME280;3299;42.004;24.868;2023-01-29T07:06:00;98558.59;;;4.81;100.00
6532;BME280;3299;42.004;24.868;2023-01-29T07:08:26;98575.19;;;4.92;100.00
6532;BME280;3299;42.004;24.868;2023-01-29T07:10:52;98568.31;;;4.93;100.00
6532;BME280;3299;42.004;24.868;2023-01-29T07:13:18;98526.28;;;4.77;100.00
6532;BME280;3299;42.004;24.868;2023-01-29T07:15:43;98546.09;;;4.93;100.00
6532;BME280;3299;42.004;24.868;2023-01-29T07:18:09;98518.59;;;4.77;100.00
6532;BME280;3299;42.004;24.868;2023-01-29T07:20:39;98575.00;;;5.15;100.00
6532;BME280;3299;42.004;24.868;2023-01-29T07:23:05;98581.66;;;5.19;100.00
6532;BME280;3299;42.004;24.868;2023-01-29T07:25:30;98575.28;;;5.09;100.00
6532;BME280;3299;42.004;24.868;2023-01-29T07:27:59;98546.19;;;4.90;100.00
6532;BME280;3299;42.004;24.868;2023-01-29T07:30:24;98540.31;;;4.88;100.00
6532;BME280;3299;42.004;24.868;2023-01-29T07:32:50;98531.19;;;4.83;100.00
6532;BME280;3299;42.004;24.868;2023-01-29T07:35:15;98562.31;;;5.12;100.00
6532;BME280;3299;42.004;24.868;2023-01-29T07:37:40;98512.41;;;4.82;100.00
6532;BME280;3299;42.004;24.868;2023-01-29T07:40:07;98586.16;;;5.14;100.00
6532;BME280;3299;42.004;24.868;2023-01-29T07:42:37;98515.06;;;4.79;100.00
6532;BME280;3299;42.004;24.868;2023-01-29T07:45:05;98483.09;;;4.69;98.57
6532;BME280;3299;42.004;24.868;2023-01-29T07:47:30;98528.25;;;4.90;99.74
6532;BME280;3299;42.004;24.868;2023-01-29T07:49:55;98588.78;;;5.31;100.00
6532;BME280;3299;42.004;24.868;2023-01-29T07:52:21;98577.50;;;5.35;100.00
6532;BME280;3299;42.004;24.868;2023-01-29T07:54:46;98577.16;;;5.43;100.00
6532;BME280;3299;42.004;24.868;2023-01-29T07:57:12;98529.25;;;5.06;100.00
6532;BME280;3299;42.004;24.868;2023-01-29T07:59:37;98586.66;;;5.41;99.21
6532;BME280;3299;42.004;24.868;2023-01-29T08:02:02;98581.38;;;5.25;100.00
6532;BME280;3299;42.004;24.868;2023-01-29T08:04:28;98586.22;;;5.31;100.00
6532;BME280;3299;42.004;24.868;2023-01-29T08:06:53;98596.84;;;5.42;100.00
6532;BME280;3299;42.004;24.868;2023-01-29T08:09:19;98536.03;;;5.07;100.00
6532;BME280;3299;42.004;24.868;2023-01-29T08:11:44;98552.00;;;5.14;98.27
6532;BME280;3299;42.004;24.868;2023-01-29T08:14:10;98549.66;;;5.09;98.81
6532;BME280;3299;42.004;24.868;2023-01-29T08:16:35;98596.16;;;5.39;99.28
6532;BME280;3299;42.004;24.868;2023-01-29T08:19:01;98584.50;;;5.32;99.46
6532;BME280;3299;42.004;24.868;2023-01-29T08:21:26;98594.28;;;5.42;99.30
6532;BME280;3299;42.004;24.868;2023-01-29T08:23:52;98579.16;;;5.36;97.03
6532;BME280;3299;42.004;24.868;2023-01-29T08:26:17;98549.09;;;5.21;96.22
6532;BME280;3299;42.004;24.868;2023-01-29T08:28:43;98551.84;;;5.35;95.01
6532;BME280;3299;42.004;24.868;2023-01-29T08:31:15;98606.16;;;5.63;94.41
6532;BME280;3299;42.004;24.868;2023-01-29T08:33:41;98612.47;;;5.56;95.70
6532;BME280;3299;42.004;24.868;2023-01-29T08:36:07;98557.59;;;5.22;94.01
6532;BME280;3299;42.004;24.868;2023-01-29T08:38:32;98598.03;;;5.35;95.46
6532;BME280;3299;42.004;24.868;2023-01-29T08:40:58;98617.03;;;5.50;94.81
6532;BME280;3299;42.004;24.868;2023-01-29T08:43:23;98597.06;;;5.38;95.48
6532;BME280;3299;42.004;24.868;2023-01-29T08:45:49;98596.22;;;5.37;95.39
6532;BME280;3299;42.004;24.868;2023-01-29T08:48:14;98631.59;;;5.49;94.89
6532;BME280;3299;42.004;24.868;2023-01-29T08:50:39;98560.94;;;5.05;95.36
6532;BME280;3299;42.004;24.868;2023-01-29T08:53:06;98631.75;;;5.46;95.16
6532;BME280;3299;42.004;24.868;2023-01-29T08:55:35;98540.81;;;4.96;95.00
6532;BME280;3299;42.004;24.868;2023-01-29T08:58:02;98628.28;;;5.47;95.27
6532;BME280;3299;42.004;24.868;2023-01-29T09:00:28;98601.50;;;5.34;95.96
6532;BME280;3299;42.004;24.868;2023-01-29T09:02:53;98519.81;;;4.88;95.36
6532;BME280;3299;42.004;24.868;2023-01-29T09:05:19;98628.75;;;5.55;95.81
6532;BME280;3299;42.004;24.868;2023-01-29T09:07:44;98622.06;;;5.53;94.86
6532;BME280;3299;42.004;24.868;2023-01-29T09:10:10;98614.00;;;5.42;92.89
6532;BME280;3299;42.004;24.868;2023-01-29T09:12:36;98628.28;;;5.47;93.68
6532;BME280;3299;42.004;24.868;2023-01-29T09:15:01;98560.03;;;5.06;92.57
6532;BME280;3299;42.004;24.868;2023-01-29T09:17:28;98603.03;;;5.38;92.93
6532;BME280;3299;42.004;24.868;2023-01-29T09:19:53;98598.03;;;5.35;93.40
6532;BME280;3299;42.004;24.868;2023-01-29T09:22:19;98564.13;;;5.10;93.65
6532;BME280;3299;42.004;24.868;2023-01-29T09:24:44;98617.19;;;5.47;94.52
6532;BME280;3299;42.004;24.868;2023-01-29T09:27:10;98550.66;;;5.05;93.17
6532;BME280;3299;42.004;24.868;2023-01-29T09:29:36;98612.75;;;5.50;93.18
6532;BME280;3299;42.004;24.868;2023-01-29T09:32:05;98620.28;;;5.53;92.65
6532;BME280;3299;42.004;24.868;2023-01-29T09:34:31;98555.09;;;5.20;93.07
6532;BME280;3299;42.004;24.868;2023-01-29T09:36:56;98515.53;;;5.07;91.95
6532;BME280;3299;42.004;24.868;2023-01-29T09:39:21;98568.78;;;5.39;92.46
6532;BME280;3299;42.004;24.868;2023-01-29T09:44:58;98622.47;;;5.62;91.89
6532;BME280;3299;42.004;24.868;2023-01-29T09:47:27;98578.53;;;5.31;92.96
6532;BME280;3299;42.004;24.868;2023-01-29T09:50:00;98617.03;;;5.50;93.44
6532;BME280;3299;42.004;24.868;2023-01-29T09:52:34;98560.72;;;5.28;92.77
6532;BME280;3299;42.004;24.868;2023-01-29T09:55:09;98511.63;;;4.99;91.92
6532;BME280;3299;42.004;24.868;2023-01-29T09:57:51;98589.84;;;5.46;93.01
6532;BME280;3299;42.004;24.868;2023-01-29T10:00:23;98596.44;;;5.51;91.89
6532;BME280;3299;42.004;24.868;2023-01-29T10:03:23;98613.69;;;5.66;91.47
6532;BME280;3299;42.004;24.868;2023-01-29T10:08:43;98612.03;;;5.65;90.85
6532;BME280;3299;42.004;24.868;2023-01-29T10:11:24;98614.53;;;5.67;90.85
6532;BME280;3299;42.004;24.868;2023-01-29T10:14:22;98590.13;;;5.58;91.11
6532;BME280;3299;42.004;24.868;2023-01-29T10:17:04;98605.13;;;5.67;92.06
6532;BME280;3299;42.004;24.868;2023-01-29T10:25:11;98583.88;;;5.64;88.16
6532;BME280;3299;42.004;24.868;2023-01-29T10:27:39;98583.53;;;5.71;89.30
6532;BME280;3299;42.004;24.868;2023-01-29T10:30:16;98570.84;;;5.68;88.33
6532;BME280;3299;42.004;24.868;2023-01-29T10:32:45;98529.78;;;5.50;88.67
6532;BME280;3299;42.004;24.868;2023-01-29T10:35:33;98578.34;;;5.91;89.12
6532;BME280;3299;42.004;24.868;2023-01-29T10:38:37;98530.41;;;5.73;88.85
6532;BME280;3299;42.004;24.868;2023-01-29T10:51:36;98577.47;;;6.09;85.63
6532;BME280;3299;42.004;24.868;2023-01-29T11:01:58;98561.53;;;6.20;84.68
6532;BME280;3299;42.004;24.868;2023-01-29T11:04:27;98506.44;;;5.91;84.29
6532;BME280;3299;42.004;24.868;2023-01-29T11:06:55;98558.88;;;6.21;83.63
6532;BME280;3299;42.004;24.868;2023-01-29T11:12:15;98547.25;;;6.31;83.62
6532;BME280;3299;42.004;24.868;2023-01-29T11:14:52;98491.25;;;6.04;83.85
6532;BME280;3299;42.004;24.868;2023-01-29T11:17:21;98479.78;;;6.11;83.98
6532;BME280;3299;42.004;24.868;2023-01-29T11:19:48;98459.91;;;5.97;83.54
6532;BME280;3299;42.004;24.868;2023-01-29T11:22:25;98540.91;;;6.55;83.30
6532;BME280;3299;42.004;24.868;2023-01-29T11:25:14;98535.44;;;6.61;81.77
6532;BME280;3299;42.004;24.868;2023-01-29T11:27:51;98483.59;;;6.36;80.22
6532;BME280;3299;42.004;24.868;2023-01-29T11:30:31;98530.97;;;6.65;80.61
6532;BME280;3299;42.004;24.868;2023-01-29T11:35:29;98519.47;;;6.72;81.74
6532;BME280;3299;42.004;24.868;2023-01-29T11:38:16;98523.72;;;6.88;82.35
6532;BME280;3299;42.004;24.868;2023-01-29T11:40:43;98484.47;;;6.69;81.63
6532;BME280;3299;42.004;24.868;2023-01-29T11:45:40;98514.06;;;7.09;79.04
6532;BME280;3299;42.004;24.868;2023-01-29T11:48:29;98514.16;;;7.07;78.77
6532;BME280;3299;42.004;24.868;2023-01-29T11:50:58;98460.84;;;6.78;79.32
6532;BME280;3299;42.004;24.868;2023-01-29T11:53:43;98512.41;;;7.23;79.21
6532;BME280;3299;42.004;24.868;2023-01-29T11:56:32;98516.81;;;7.21;77.31
6532;BME280;3299;42.004;24.868;2023-01-29T11:59:00;98465.34;;;6.90;77.59
6532;BME280;3299;42.004;24.868;2023-01-29T12:01:46;98463.16;;;6.83;77.61
6532;BME280;3299;42.004;24.868;2023-01-29T12:04:23;98507.19;;;7.09;78.76
6532;BME280;3299;42.004;24.868;2023-01-29T12:06:51;98412.44;;;6.54;77.75
6532;BME280;3299;42.004;24.868;2023-01-29T12:09:23;98444.56;;;6.78;78.67
6532;BME280;3299;42.004;24.868;2023-01-29T12:11:52;98450.81;;;6.89;78.04
6532;BME280;3299;42.004;24.868;2023-01-29T12:14:32;98498.13;;;7.18;76.79
6532;BME280;3299;42.004;24.868;2023-01-29T12:17:09;98509.63;;;7.28;77.28
6532;BME280;3299;42.004;24.868;2023-01-29T12:24:46;98479.81;;;7.24;75.48
6532;BME280;3299;42.004;24.868;2023-01-29T12:29:50;98457.38;;;7.10;75.13
6532;BME280;3299;42.004;24.868;2023-01-29T12:32:40;98502.63;;;7.45;75.14
6532;BME280;3299;42.004;24.868;2023-01-29T12:35:53;98491.31;;;7.48;75.53
6532;BME280;3299;42.004;24.868;2023-01-29T12:38:18;98494.56;;;7.51;74.37
6532;BME280;3299;42.004;24.868;2023-01-29T12:40:52;98496.47;;;7.48;73.64
6532;BME280;3299;42.004;24.868;2023-01-29T12:45:56;98479.97;;;7.36;75.18
6532;BME280;3299;42.004;24.868;2023-01-29T12:48:26;98394.66;;;6.82;73.51
6532;BME280;3299;42.004;24.868;2023-01-29T12:50:57;98440.28;;;7.09;74.03
6532;BME280;3299;42.004;24.868;2023-01-29T12:53:27;98468.84;;;7.20;72.35
6532;BME280;3299;42.004;24.868;2023-01-29T12:55:58;98449.19;;;7.04;73.03
6532;BME280;3299;42.004;24.868;2023-01-29T12:58:48;98499.53;;;7.23;73.04
6532;BME280;3299;42.004;24.868;2023-01-29T13:01:39;98486.28;;;7.15;73.21
6532;BME280;3299;42.004;24.868;2023-01-29T13:07:33;98423.50;;;6.71;74.06
6532;BME280;3299;42.004;24.868;2023-01-29T13:10:09;98468.31;;;6.98;73.59
6532;BME280;3299;42.004;24.868;2023-01-29T13:12:38;98417.03;;;6.64;74.16
6532;BME280;3299;42.004;24.868;2023-01-29T13:15:22;98436.66;;;6.65;74.28
6532;BME280;3299;42.004;24.868;2023-01-29T13:17:54;98478.94;;;6.92;75.89
6532;BME280;3299;42.004;24.868;2023-01-29T13:20:22;98488.00;;;6.99;76.53
6532;BME280;3299;42.004;24.868;2023-01-29T13:22:49;98480.88;;;7.04;75.60
6532;BME280;3299;42.004;24.868;2023-01-29T13:25:17;98482.84;;;7.15;75.68
6532;BME280;3299;42.004;24.868;2023-01-29T13:27:43;98485.94;;;7.21;72.86
6532;BME280;3299;42.004;24.868;2023-01-29T13:30:32;98499.38;;;7.26;73.38
6532;BME280;3299;42.004;24.868;2023-01-29T13:33:02;98451.81;;;7.02;72.67
6532;BME280;3299;42.004;24.868;2023-01-29T13:35:41;98481.63;;;7.22;73.10
6532;BME280;3299;42.004;24.868;2023-01-29T13:38:24;98434.16;;;6.96;73.71
6532;BME280;3299;42.004;24.868;2023-01-29T13:40:53;98481.38;;;7.26;72.83
6532;BME280;3299;42.004;24.868;2023-01-29T13:43:24;98479.38;;;7.31;72.18
6532;BME280;3299;42.004;24.868;2023-01-29T13:45:51;98485.13;;;7.36;71.74
6532;BME280;3299;42.004;24.868;2023-01-29T13:50:44;98480.31;;;7.30;72.89
6532;BME280;3299;42.004;24.868;2023-01-29T13:53:40;98447.81;;;7.12;72.99
6532;BME280;3299;42.004;24.868;2023-01-29T13:58:57;98470.81;;;7.31;72.85
6532;BME280;3299;42.004;24.868;2023-01-29T14:06:56;98500.38;;;7.39;72.61
6532;BME280;3299;42.004;24.868;2023-01-29T14:10:07;98492.91;;;7.35;72.14
6532;BME280;3299;42.004;24.868;2023-01-29T14:12:36;98489.25;;;7.23;71.18
6532;BME280;3299;42.004;24.868;2023-01-29T14:17:37;98455.53;;;6.97;72.22
6532;BME280;3299;42.004;24.868;2023-01-29T14:20:17;98444.50;;;6.79;72.22
6532;BME280;3299;42.004;24.868;2023-01-29T14:22:53;98417.09;;;6.63;72.93
6532;BME280;3299;42.004;24.868;2023-01-29T14:25:30;98476.97;;;6.97;73.98
6532;BME280;3299;42.004;24.868;2023-01-29T14:27:59;98423.00;;;6.65;74.51
6532;BME280;3299;42.004;24.868;2023-01-29T14:30:28;98442.41;;;6.70;74.47
6532;BME280;3299;42.004;24.868;2023-01-29T14:32:54;98478.78;;;6.95;74.80
6532;BME280;3299;42.004;24.868;2023-01-29T14:35:25;98465.41;;;6.89;74.81
6532;BME280;3299;42.004;24.868;2023-01-29T14:37:59;98439.69;;;6.73;74.84
6532;BME280;3299;42.004;24.868;2023-01-29T14:40:26;98424.91;;;6.61;75.95
6532;BME280;3299;42.004;24.868;2023-01-29T14:43:04;98504.75;;;7.06;76.39
6532;BME280;3299;42.004;24.868;2023-01-29T14:45:31;98510.50;;;7.11;75.23
6532;BME280;3299;42.004;24.868;2023-01-29T14:50:39;98415.69;;;6.57;75.73
6532;BME280;3299;42.004;24.868;2023-01-29T14:56:40;98454.88;;;6.78;76.37
6532;BME280;3299;42.004;24.868;2023-01-29T14:59:31;98453.88;;;6.80;75.71
6532;BME280;3299;42.004;24.868;2023-01-29T15:02:02;98467.56;;;6.81;75.84
6532;BME280;3299;42.004;24.868;2023-01-29T15:04:42;98461.50;;;6.82;74.79
6532;BME280;3299;42.004;24.868;2023-01-29T15:07:34;98516.72;;;7.07;74.53
6532;BME280;3299;42.004;24.868;2023-01-29T15:10:11;98515.03;;;7.06;75.68
6532;BME280;3299;42.004;24.868;2023-01-29T15:12:56;98519.44;;;7.04;74.22
6532;BME280;3299;42.004;24.868;2023-01-29T15:15:46;98518.25;;;6.94;75.00
6532;BME280;3299;42.004;24.868;2023-01-29T15:18:19;98486.44;;;6.64;75.75
6532;BME280;3299;42.004;24.868;2023-01-29T15:20:47;98465.59;;;6.53;77.07
6532;BME280;3299;42.004;24.868;2023-01-29T15:23:32;98507.94;;;6.79;77.19
6532;BME280;3299;42.004;24.868;2023-01-29T15:26:01;98527.97;;;6.89;76.69
6532;BME280;3299;42.004;24.868;2023-01-29T15:28:29;98482.38;;;6.60;76.39
6532;BME280;3299;42.004;24.868;2023-01-29T15:31:00;98531.25;;;6.76;76.41
6532;BME280;3299;42.004;24.868;2023-01-29T15:33:28;98479.84;;;6.43;75.54
6532;BME280;3299;42.004;24.868;2023-01-29T15:35:57;98518.94;;;6.65;75.16
6532;BME280;3299;42.004;24.868;2023-01-29T15:38:24;98486.63;;;6.44;75.88
6532;BME280;3299;42.004;24.868;2023-01-29T15:41:17;98531.97;;;6.62;77.24